Time;durP1;ratioP1;P1;durP2;ratioP2;P2;SDS_P1;SDS_P2;PMS_P1;PMS_P2;Temp;Humidity;BMP_temperature;BMP_pressure;BME280_temperature;BME280_humidity;BME280_pressure;Samples;Min_cycle;Max_cycle;Signal;HPM_P1;HPM_P2
2023/07/25 00:02:11;;;;;;;10.27;5.80;;;15.60;99.90;;;;;;5033775;28;20488;-71
2023/07/25 00:04:39;;;;;;;7.83;5.97;;;15.60;99.90;;;;;;5033886;28;20435;-71
2023/07/25 00:07:07;;;;;;;7.50;5.60;;;15.50;99.90;;;;;;5034057;28;20443;-71
2023/07/25 00:09:35;;;;;;;6.10;5.50;;;15.50;99.90;;;;;;5032861;28;20504;-71
2023/07/25 00:12:04;;;;;;;10.20;6.03;;;15.50;99.90;;;;;;5033766;28;20559;-71
2023/07/25 00:14:34;;;;;;;9.20;5.50;;;15.50;99.90;;;;;;5032387;28;20436;-71
2023/07/25 00:17:03;;;;;;;6.70;6.10;;;15.50;99.90;;;;;;5032358;28;20417;-71
2023/07/25 00:19:32;;;;;;;6.97;6.23;;;15.40;99.90;;;;;;5033840;28;20539;-71
2023/07/25 00:22:00;;;;;;;6.40;5.63;;;15.40;99.90;;;;;;5032210;28;21033;-71
2023/07/25 00:24:28;;;;;;;7.57;6.00;;;15.40;99.90;;;;;;5033784;28;20443;-71
2023/07/25 00:26:57;;;;;;;8.60;6.37;;;15.30;99.90;;;;;;5033477;28;20417;-71
2023/07/25 00:29:25;;;;;;;8.17;5.83;;;15.30;99.90;;;;;;5033655;28;20481;-71
2023/07/25 00:31:53;;;;;;;7.93;6.47;;;15.30;99.90;;;;;;5032108;28;20463;-71
2023/07/25 00:34:21;;;;;;;10.67;6.87;;;15.30;99.90;;;;;;5032275;28;20554;-71
2023/07/25 00:36:52;;;;;;;7.43;6.60;;;15.30;99.90;;;;;;5033178;28;20512;-71
2023/07/25 00:39:20;;;;;;;8.40;5.70;;;15.20;99.90;;;;;;5032081;28;20442;-71
2023/07/25 00:41:49;;;;;;;8.83;6.53;;;15.20;99.90;;;;;;5033286;28;20465;-71
2023/07/25 00:44:17;;;;;;;9.00;6.40;;;15.20;99.90;;;;;;5032067;28;20501;-71
2023/07/25 00:46:47;;;;;;;7.80;6.53;;;15.20;99.90;;;;;;5033293;28;20449;-71
2023/07/25 00:49:15;;;;;;;9.50;5.70;;;15.20;99.90;;;;;;5032008;28;20986;-71
2023/07/25 00:51:43;;;;;;;7.93;6.07;;;15.10;99.90;;;;;;5032423;28;20565;-71
2023/07/25 00:54:13;;;;;;;8.50;6.20;;;15.10;99.90;;;;;;5031923;28;20447;-71
2023/07/25 00:56:41;;;;;;;7.93;5.93;;;15.10;99.90;;;;;;5033390;28;20462;-71
2023/07/25 00:59:09;;;;;;;9.60;6.53;;;15.10;99.90;;;;;;5033145;28;20420;-71
2023/07/25 01:01:38;;;;;;;8.60;7.70;;;15.10;99.90;;;;;;5033321;28;20516;-71
2023/07/25 01:04:07;;;;;;;11.33;6.20;;;15.10;99.90;;;;;;5031880;28;20447;-71
2023/07/25 01:06:36;;;;;;;8.90;7.23;;;15.00;99.90;;;;;;5031837;28;20497;-71
2023/07/25 01:09:05;;;;;;;8.33;6.40;;;15.00;99.90;;;;;;5031785;28;21027;-71
2023/07/25 01:11:34;;;;;;;8.37;7.10;;;15.00;99.90;;;;;;5031618;28;20483;-71
2023/07/25 01:14:02;;;;;;;10.03;7.37;;;15.00;99.90;;;;;;5031715;28;20801;-71
2023/07/25 01:16:31;;;;;;;8.43;6.37;;;15.00;99.90;;;;;;5031623;28;20513;-71
2023/07/25 01:19:00;;;;;;;8.50;7.70;;;15.00;99.90;;;;;;5033208;28;20463;-71
2023/07/25 01:21:28;;;;;;;8.47;7.20;;;14.90;99.90;;;;;;5034033;28;20483;-71
2023/07/25 01:24:02;;;;;;;9.87;7.47;;;14.90;99.90;;;;;;5035543;28;20443;-71
2023/07/25 01:26:30;;;;;;;10.17;8.20;;;14.90;99.90;;;;;;5035505;28;20805;-71
2023/07/25 01:28:58;;;;;;;9.27;7.90;;;14.80;99.90;;;;;;5035420;28;20439;-71
2023/07/25 01:31:26;;;;;;;10.23;7.70;;;14.80;99.90;;;;;;5036756;28;20465;-71
2023/07/25 01:33:54;;;;;;;11.10;7.43;;;14.80;99.90;;;;;;5036941;28;20530;-71
2023/07/25 01:36:23;;;;;;;8.60;7.30;;;14.80;99.90;;;;;;5036860;28;20565;-71
2023/07/25 01:38:51;;;;;;;10.77;7.63;;;14.70;99.90;;;;;;5036609;28;20486;-70
2023/07/25 01:41:20;;;;;;;9.53;7.20;;;14.70;99.90;;;;;;5036506;28;20912;-71
2023/07/25 01:43:48;;;;;;;13.80;7.90;;;14.70;99.90;;;;;;5036528;28;20443;-71
2023/07/25 01:46:16;;;;;;;10.00;7.60;;;14.70;99.90;;;;;;5035229;28;20431;-71
2023/07/25 01:48:45;;;;;;;8.80;7.60;;;14.70;99.90;;;;;;5036638;28;20529;-71
2023/07/25 01:51:13;;;;;;;9.23;7.17;;;14.70;99.90;;;;;;5036453;28;20557;-71
2023/07/25 01:53:41;;;;;;;9.10;7.70;;;14.70;99.90;;;;;;5036257;28;20441;-71
2023/07/25 01:56:09;;;;;;;12.03;8.40;;;14.70;99.90;;;;;;5034920;28;20581;-71
2023/07/25 01:58:39;;;;;;;9.00;8.10;;;14.70;99.90;;;;;;5035175;28;20457;-71
2023/07/25 02:01:07;;;;;;;9.80;7.67;;;14.70;99.90;;;;;;5034809;28;20462;-71
2023/07/25 02:03:35;;;;;;;9.40;7.70;;;14.70;99.90;;;;;;5036369;28;20442;-71
2023/07/25 02:06:04;;;;;;;12.47;8.40;;;14.60;99.90;;;;;;5036026;28;20438;-70
2023/07/25 02:08:32;;;;;;;12.67;8.20;;;14.60;99.90;;;;;;5035023;28;20830;-70
2023/07/25 02:11:00;;;;;;;9.60;8.60;;;14.60;99.90;;;;;;5034512;28;20995;-70
2023/07/25 02:13:28;;;;;;;12.57;7.67;;;14.60;99.90;;;;;;5035918;28;20459;-71
2023/07/25 02:15:58;;;;;;;11.00;8.30;;;14.60;99.90;;;;;;5034659;28;20466;-71
2023/07/25 02:18:26;;;;;;;9.00;8.20;;;14.60;99.90;;;;;;5034567;28;20439;-70
2023/07/25 02:20:55;;;;;;;11.37;7.87;;;14.60;99.90;;;;;;5034430;28;20498;-70
2023/07/25 02:23:23;;;;;;;10.90;8.20;;;14.50;99.90;;;;;;5035974;28;20994;-70
2023/07/25 02:25:51;;;;;;;9.50;7.50;;;14.60;99.90;;;;;;5034491;28;20622;-70
2023/07/25 02:28:19;;;;;;;8.83;7.60;;;14.60;99.90;;;;;;5035664;28;20948;-70
2023/07/25 02:30:47;;;;;;;8.10;7.30;;;14.50;99.90;;;;;;5034299;28;20470;-71
2023/07/25 02:33:17;;;;;;;11.67;7.93;;;14.50;99.90;;;;;;5034879;28;20494;-71
2023/07/25 02:35:45;;;;;;;11.07;8.17;;;14.50;99.90;;;;;;5035497;28;20496;-70
2023/07/25 02:38:13;;;;;;;10.77;8.13;;;14.50;99.90;;;;;;5035441;28;20541;-70
2023/07/25 02:40:44;;;;;;;9.30;8.23;;;14.50;99.90;;;;;;5035367;28;20486;-70
2023/07/25 02:43:12;;;;;;;9.20;8.27;;;14.40;99.90;;;;;;5034130;28;20474;-71
2023/07/25 02:45:40;;;;;;;12.33;8.33;;;14.40;99.90;;;;;;5034052;28;20443;-71
2023/07/25 02:48:08;;;;;;;9.60;8.60;;;14.40;99.90;;;;;;5033976;28;20440;-71
2023/07/25 02:50:37;;;;;;;10.63;8.20;;;14.40;99.90;;;;;;5033868;28;20466;-71
2023/07/25 02:53:06;;;;;;;11.43;8.33;;;14.30;99.90;;;;;;5034195;28;20851;-70
2023/07/25 02:55:34;;;;;;;9.57;7.90;;;14.30;99.90;;;;;;5035406;28;20475;-71
2023/07/25 02:58:02;;;;;;;10.53;8.30;;;14.30;99.90;;;;;;5035564;28;20562;-70
2023/07/25 03:00:30;;;;;;;11.33;8.20;;;14.30;99.90;;;;;;5034980;28;20963;-70
2023/07/25 03:02:58;;;;;;;9.87;8.33;;;14.30;99.90;;;;;;5033700;28;20451;-71
2023/07/25 03:05:28;;;;;;;9.47;7.77;;;14.20;99.90;;;;;;5034969;28;20504;-70
2023/07/25 03:07:58;;;;;;;14.53;8.90;;;14.20;99.90;;;;;;5034857;28;20459;-71
2023/07/25 03:10:26;;;;;;;10.63;8.33;;;14.20;99.90;;;;;;5033331;28;20484;-71
2023/07/25 03:12:54;;;;;;;11.50;8.33;;;14.20;99.90;;;;;;5033527;28;20434;-71
2023/07/25 03:15:22;;;;;;;12.17;8.03;;;14.10;99.90;;;;;;5033501;28;20483;-71
2023/07/25 03:17:50;;;;;;;10.87;7.90;;;14.10;99.90;;;;;;5049987;28;20997;-71
2023/07/25 03:20:19;;;;;;;10.70;8.07;;;14.10;99.90;;;;;;5033322;28;20443;-70
2023/07/25 03:22:47;;;;;;;13.37;7.93;;;14.10;99.90;;;;;;5034669;28;20439;-71
2023/07/25 03:25:16;;;;;;;11.30;7.83;;;14.10;99.90;;;;;;5033332;28;20466;-71
2023/07/25 03:27:45;;;;;;;8.40;7.60;;;14.10;99.90;;;;;;5034587;28;20439;-71
2023/07/25 03:30:13;;;;;;;11.20;8.17;;;14.00;99.90;;;;;;5034447;28;20955;-71
2023/07/25 03:32:41;;;;;;;10.87;7.70;;;14.00;99.90;;;;;;5033211;28;20443;-71
2023/07/25 03:35:09;;;;;;;9.47;8.60;;;14.00;99.90;;;;;;5034359;28;20523;-71
2023/07/25 03:37:38;;;;;;;8.80;8.00;;;14.00;99.90;;;;;;5032995;28;20474;-71
2023/07/25 03:40:07;;;;;;;10.07;9.07;;;14.00;99.90;;;;;;5034538;28;20522;-71
2023/07/25 03:42:36;;;;;;;10.43;8.40;;;14.00;99.90;;;;;;5034258;28;20435;-70
2023/07/25 03:45:05;;;;;;;10.00;8.87;;;14.00;99.90;;;;;;5033260;28;20845;-71
2023/07/25 03:47:33;;;;;;;12.77;8.33;;;14.00;99.90;;;;;;5034135;28;20527;-71
2023/07/25 03:50:02;;;;;;;9.00;7.10;;;14.00;99.90;;;;;;5032852;28;20544;-70
2023/07/25 03:52:30;;;;;;;9.40;8.10;;;14.00;99.90;;;;;;5032740;28;20980;-71
2023/07/25 03:54:58;;;;;;;12.60;8.57;;;14.00;99.90;;;;;;5032698;28;20995;-71
2023/07/25 03:57:26;;;;;;;11.83;7.60;;;13.90;99.90;;;;;;5032723;28;20844;-71
2023/07/25 03:59:56;;;;;;;13.73;8.40;;;13.90;99.90;;;;;;5033866;28;20525;-71
2023/07/25 04:02:24;;;;;;;11.90;8.20;;;13.90;99.90;;;;;;5032578;28;20561;-70
2023/07/25 04:04:52;;;;;;;10.03;8.00;;;13.90;99.90;;;;;;5032605;28;20446;-70
2023/07/25 04:07:20;;;;;;;11.40;7.50;;;13.90;99.90;;;;;;5032480;28;20972;-70
2023/07/25 04:09:49;;;;;;;8.93;7.60;;;13.90;99.90;;;;;;5032383;28;20489;-71
2023/07/25 04:12:17;;;;;;;8.67;7.77;;;13.90;99.90;;;;;;5033691;28;20455;-70
2023/07/25 04:14:45;;;;;;;9.70;7.87;;;13.90;99.90;;;;;;5033653;28;20431;-71
2023/07/25 04:17:14;;;;;;;10.00;7.47;;;13.80;99.90;;;;;;5033861;28;20466;-71
2023/07/25 04:19:43;;;;;;;9.10;8.20;;;13.80;99.90;;;;;;5032413;28;20952;-71
2023/07/25 04:22:11;;;;;;;8.80;7.90;;;13.80;99.90;;;;;;5032216;28;20987;-71
2023/07/25 04:24:39;;;;;;;9.63;7.90;;;13.80;99.90;;;;;;5033786;28;20526;-71
2023/07/25 04:27:08;;;;;;;8.07;7.20;;;13.80;99.90;;;;;;5032614;28;20502;-71
2023/07/25 04:29:36;;;;;;;8.77;7.90;;;13.80;99.90;;;;;;5033488;28;20928;-71
2023/07/25 04:32:05;;;;;;;9.63;7.53;;;13.80;99.90;;;;;;5032040;28;20992;-71
2023/07/25 04:34:34;;;;;;;8.07;7.37;;;13.80;99.90;;;;;;5033700;28;20489;-71
2023/07/25 04:37:02;;;;;;;11.33;8.70;;;13.80;99.90;;;;;;5031975;28;20477;-71
2023/07/25 04:39:30;;;;;;;8.83;7.93;;;13.80;99.90;;;;;;5033924;28;20929;-71
2023/07/25 04:41:59;;;;;;;10.70;7.00;;;13.80;99.90;;;;;;5031930;28;20960;-71
2023/07/25 04:44:27;;;;;;;10.53;7.60;;;13.80;99.90;;;;;;5032014;28;20451;-71
2023/07/25 04:46:55;;;;;;;11.70;7.50;;;13.80;99.90;;;;;;5032037;28;20451;-71
2023/07/25 04:49:25;;;;;;;8.80;7.30;;;13.80;99.90;;;;;;5031978;28;20496;-71
2023/07/25 04:51:54;;;;;;;9.30;7.57;;;13.80;99.90;;;;;;5033149;28;20960;-71
2023/07/25 04:54:22;;;;;;;11.63;7.30;;;13.80;99.90;;;;;;5031982;28;20504;-70
2023/07/25 04:56:51;;;;;;;14.43;8.00;;;13.80;99.90;;;;;;5036357;28;20936;-71
2023/07/25 04:59:19;;;;;;;8.93;7.10;;;13.80;99.90;;;;;;5037376;28;20442;-71
2023/07/25 05:01:47;;;;;;;10.37;6.83;;;13.80;99.90;;;;;;5035956;28;20485;-71
2023/07/25 05:04:16;;;;;;;15.73;7.50;;;13.90;99.90;;;;;;5037433;28;20497;-71
2023/07/25 05:06:44;;;;;;;9.63;6.90;;;13.90;99.90;;;;;;5037658;28;20434;-71
2023/07/25 05:09:15;;;;;;;9.13;7.47;;;13.90;99.90;;;;;;5037423;28;20434;-71
2023/07/25 05:11:43;;;;;;;10.87;7.00;;;13.90;99.90;;;;;;5037001;28;21015;-71
2023/07/25 05:14:11;;;;;;;9.43;7.23;;;13.90;99.90;;;;;;5037239;28;20450;-71
2023/07/25 05:16:39;;;;;;;10.33;7.10;;;13.90;99.90;;;;;;5035783;28;20445;-70
2023/07/25 05:19:08;;;;;;;7.67;6.70;;;13.90;99.90;;;;;;5037186;28;20561;-71
2023/07/25 05:21:36;;;;;;;9.63;7.00;;;13.90;99.90;;;;;;5037104;28;20482;-71
2023/07/25 05:24:04;;;;;;;7.77;7.07;;;14.00;99.90;;;;;;5035604;28;20461;-71
2023/07/25 05:26:34;;;;;;;8.80;6.87;;;14.00;99.90;;;;;;5037168;28;20964;-71
2023/07/25 05:29:02;;;;;;;9.90;7.37;;;14.00;99.90;;;;;;5037389;28;20531;-71
2023/07/25 05:31:30;;;;;;;11.20;7.93;;;14.10;99.90;;;;;;5036709;28;20541;-71
2023/07/25 05:33:58;;;;;;;10.30;7.57;;;14.10;99.90;;;;;;5035474;28;20443;-71
2023/07/25 05:36:26;;;;;;;12.47;7.03;;;14.10;99.90;;;;;;5035303;28;20481;-71
2023/07/25 05:38:55;;;;;;;9.53;7.23;;;14.20;99.90;;;;;;5036510;28;20466;-71
2023/07/25 05:41:23;;;;;;;10.30;6.77;;;14.20;99.90;;;;;;5035181;28;20569;-70
2023/07/25 05:43:52;;;;;;;6.67;6.07;;;14.30;99.90;;;;;;5036621;28;20478;-71
2023/07/25 05:46:20;;;;;;;12.10;7.93;;;14.30;99.90;;;;;;5036418;28;21028;-71
2023/07/25 05:48:49;;;;;;;14.30;7.77;;;14.40;99.90;;;;;;5036344;28;20517;-71
2023/07/25 05:51:17;;;;;;;11.63;7.40;;;14.40;99.90;;;;;;5036718;28;20426;-70
2023/07/25 05:53:45;;;;;;;7.80;6.60;;;14.50;99.90;;;;;;5035082;28;20475;-71
2023/07/25 05:56:14;;;;;;;13.10;6.57;;;14.60;99.90;;;;;;5036339;28;20797;-71
2023/07/25 05:58:42;;;;;;;7.50;6.33;;;14.70;99.90;;;;;;5036193;28;20508;-71
2023/07/25 06:01:13;;;;;;;8.63;7.23;;;14.90;99.90;;;;;;5036134;28;20455;-71
2023/07/25 06:03:41;;;;;;;7.20;6.37;;;15.00;99.90;;;;;;5036577;28;20430;-71
2023/07/25 06:06:09;;;;;;;8.60;6.90;;;15.10;99.90;;;;;;5038324;28;20820;-71
2023/07/25 06:08:37;;;;;;;9.10;6.40;;;15.20;99.90;;;;;;5036323;28;20431;-71
2023/07/25 06:11:05;;;;;;;10.17;6.67;;;15.40;99.90;;;;;;5036193;28;20474;-71
2023/07/25 06:13:34;;;;;;;7.43;6.30;;;15.50;99.90;;;;;;5036228;28;20410;-71
2023/07/25 06:16:02;;;;;;;6.93;5.13;;;15.60;99.90;;;;;;5036050;28;21079;-71
2023/07/25 06:18:32;;;;;;;7.30;5.60;;;15.80;99.90;;;;;;5036244;28;20479;-71
2023/07/25 06:21:00;;;;;;;8.97;5.53;;;16.00;99.90;;;;;;5036326;28;20430;-71
2023/07/25 06:23:28;;;;;;;7.73;4.30;;;16.20;99.90;;;;;;5035789;28;20439;-71
2023/07/25 06:25:56;;;;;;;6.27;4.07;;;16.30;99.90;;;;;;5036176;28;20417;-71
2023/07/25 06:28:24;;;;;;;10.57;4.87;;;16.40;99.90;;;;;;5035871;28;20968;-71
2023/07/25 06:30:52;;;;;;;7.57;4.23;;;16.50;99.90;;;;;;5036099;28;20472;-72
2023/07/25 06:33:20;;;;;;;5.93;4.07;;;16.60;99.90;;;;;;5034471;28;20430;-71
2023/07/25 06:35:50;;;;;;;7.70;4.73;;;16.60;99.90;;;;;;5035749;28;20932;-71
2023/07/25 06:38:18;;;;;;;7.10;4.50;;;16.70;99.90;;;;;;5036117;28;20560;-71
2023/07/25 06:40:46;;;;;;;8.57;4.30;;;16.70;99.90;;;;;;5035505;28;20437;-71
2023/07/25 06:43:14;;;;;;;8.80;4.40;;;16.60;99.90;;;;;;5035541;28;20445;-71
2023/07/25 06:45:43;;;;;;;7.13;4.50;;;16.60;99.90;;;;;;5034248;28;20428;-71
2023/07/25 06:48:11;;;;;;;11.03;5.90;;;16.50;99.90;;;;;;5035323;28;20459;-71
2023/07/25 06:50:40;;;;;;;7.73;5.07;;;16.50;99.90;;;;;;5035327;28;21050;-71
2023/07/25 06:53:09;;;;;;;9.90;5.63;;;16.40;99.90;;;;;;5035332;28;20921;-71
2023/07/25 06:55:38;;;;;;;7.27;4.93;;;16.40;99.90;;;;;;5034023;28;20491;-71
2023/07/25 06:58:06;;;;;;;8.87;5.17;;;16.40;99.90;;;;;;5035747;28;20868;-71
2023/07/25 07:00:37;;;;;;;7.30;5.23;;;16.40;99.90;;;;;;5035723;28;20453;-71
2023/07/25 07:03:05;;;;;;;9.10;5.20;;;16.40;99.90;;;;;;5035389;28;20895;-71
2023/07/25 07:05:34;;;;;;;8.30;5.43;;;16.40;99.90;;;;;;5036114;28;20413;-71
2023/07/25 07:08:05;;;;;;;8.97;5.17;;;16.40;99.90;;;;;;5033980;28;20483;-71
2023/07/25 07:10:35;;;;;;;8.67;4.80;;;16.40;99.90;;;;;;5035179;28;20499;-71
2023/07/25 07:13:03;;;;;;;6.33;4.80;;;16.40;99.90;;;;;;5036225;28;20398;-71
2023/07/25 07:15:31;;;;;;;6.90;4.57;;;16.40;99.90;;;;;;5035039;28;20409;-72
2023/07/25 07:17:59;;;;;;;7.83;4.73;;;16.30;99.90;;;;;;5034783;28;20442;-71
2023/07/25 07:20:28;;;;;;;12.03;4.80;;;16.30;99.90;;;;;;5034907;28;20456;-72
2023/07/25 07:22:56;;;;;;;7.27;4.93;;;16.30;99.90;;;;;;5035046;28;20514;-71
2023/07/25 07:25:24;;;;;;;7.00;5.40;;;16.30;99.90;;;;;;5034904;28;20409;-71
2023/07/25 07:27:53;;;;;;;7.70;4.40;;;16.20;99.90;;;;;;5034767;28;20410;-71
2023/07/25 07:30:22;;;;;;;4.00;3.60;;;16.20;99.90;;;;;;5033757;28;20480;-71
2023/07/25 07:32:50;;;;;;;7.17;4.17;;;16.20;99.90;;;;;;5034770;28;20498;-71
2023/07/25 07:35:19;;;;;;;10.50;4.23;;;16.20;99.90;;;;;;5034606;28;20932;-71
2023/07/25 07:37:47;;;;;;;6.70;4.23;;;16.20;99.90;;;;;;5035259;28;20448;-71
2023/07/25 07:40:15;;;;;;;4.20;3.60;;;16.20;99.90;;;;;;5034296;28;20469;-72
2023/07/25 07:42:43;;;;;;;7.33;4.83;;;16.20;99.90;;;;;;5034662;28;20434;-73
2023/07/25 07:45:13;;;;;;;6.30;3.90;;;16.20;99.90;;;;;;5034631;28;20442;-71
2023/07/25 07:47:41;;;;;;;7.40;4.53;;;16.20;99.90;;;;;;5034757;28;20481;-72
2023/07/25 07:50:10;;;;;;;6.30;4.33;;;16.20;99.90;;;;;;5034766;28;20414;-71
2023/07/25 07:52:43;;;;;;;5.57;3.83;;;16.20;99.90;;;;;;5034682;28;20389;-72
2023/07/25 07:55:12;;;;;;;6.57;3.90;;;16.20;99.90;;;;;;5034233;28;20439;-71
2023/07/25 07:57:41;;;;;;;8.87;4.00;;;16.20;99.90;;;;;;5034193;28;20496;-71
2023/07/25 08:00:11;;;;;;;7.20;4.40;;;16.20;99.90;;;;;;5032721;28;20449;-71
2023/07/25 08:02:41;;;;;;;4.73;2.90;;;16.30;99.90;;;;;;5034574;28;20424;-71
2023/07/25 08:05:10;;;;;;;7.00;3.10;;;16.30;99.90;;;;;;5034594;28;20406;-70
2023/07/25 08:07:39;;;;;;;5.73;3.13;;;16.20;99.90;;;;;;5032689;28;20859;-71
2023/07/25 08:10:08;;;;;;;4.40;2.73;;;16.20;99.90;;;;;;5032729;28;20426;-71
2023/07/25 08:12:36;;;;;;;4.80;3.43;;;16.20;99.90;;;;;;5034374;28;20413;-73
2023/07/25 08:15:05;;;;;;;5.87;2.83;;;16.20;99.90;;;;;;5033821;28;20981;-71
2023/07/25 08:17:33;;;;;;;5.60;3.40;;;16.20;99.90;;;;;;5033835;28;20417;-71
2023/07/25 08:20:03;;;;;;;3.67;2.80;;;16.30;99.90;;;;;;5033957;28;20470;-71
2023/07/25 08:22:31;;;;;;;8.80;3.63;;;16.30;99.90;;;;;;5034265;28;20443;-71
2023/07/25 08:25:00;;;;;;;4.80;2.50;;;16.30;99.90;;;;;;5034347;28;20468;-70
2023/07/25 08:27:28;;;;;;;3.93;3.00;;;16.40;99.90;;;;;;5032464;28;20432;-71
2023/07/25 08:29:56;;;;;;;3.03;2.53;;;16.40;99.90;;;;;;5033113;28;20410;-71
2023/07/25 08:32:25;;;;;;;4.00;2.87;;;16.40;99.90;;;;;;5032273;28;20426;-71
2023/07/25 08:34:54;;;;;;;3.77;2.73;;;16.50;99.90;;;;;;5033509;28;20413;-71
2023/07/25 08:37:25;;;;;;;4.80;2.40;;;16.50;99.90;;;;;;5033867;28;20409;-71
2023/07/25 08:39:53;;;;;;;5.43;2.67;;;16.50;99.90;;;;;;5033448;28;20433;-70
2023/07/25 08:42:24;;;;;;;3.63;1.73;;;16.50;99.90;;;;;;5033434;28;20432;-71
2023/07/25 08:44:53;;;;;;;3.67;2.43;;;16.60;99.90;;;;;;5032506;28;20413;-71
2023/07/25 08:47:27;;;;;;;3.30;2.50;;;16.60;99.90;;;;;;5032155;28;20438;-70
2023/07/25 08:49:57;;;;;;;2.83;2.00;;;16.60;99.90;;;;;;5032115;28;20494;-71
2023/07/25 08:52:28;;;;;;;7.77;2.17;;;16.60;99.90;;;;;;5033490;28;20459;-71
2023/07/25 08:54:57;;;;;;;3.43;2.20;;;16.70;99.90;;;;;;5033625;28;20404;-71
2023/07/25 08:57:27;;;;;;;2.77;2.10;;;16.80;99.90;;;;;;5033434;28;20459;-71
2023/07/25 08:59:55;;;;;;;2.97;2.47;;;16.80;99.90;;;;;;5033758;28;20466;-71
2023/07/25 09:02:24;;;;;;;2.87;2.37;;;16.80;99.90;;;;;;5032074;28;20463;-71
2023/07/25 09:04:53;;;;;;;4.67;2.70;;;16.90;99.90;;;;;;5034080;28;20435;-71
2023/07/25 09:07:21;;;;;;;3.00;2.30;;;17.00;99.90;;;;;;5034124;28;20467;-71
2023/07/25 09:09:51;;;;;;;5.70;2.57;;;17.00;99.90;;;;;;5033708;28;20414;-71
2023/07/25 09:12:19;;;;;;;3.00;2.40;;;17.00;99.90;;;;;;5034218;28;20532;-71
2023/07/25 09:14:47;;;;;;;4.47;2.40;;;17.00;99.90;;;;;;5034391;28;20491;-71
2023/07/25 09:17:16;;;;;;;4.37;2.50;;;17.00;99.90;;;;;;5034555;28;20416;-71
2023/07/25 09:19:44;;;;;;;2.80;2.23;;;17.10;99.90;;;;;;5032646;28;20473;-71
2023/07/25 09:22:27;;;;;;;4.83;2.20;;;17.10;99.90;;;;;;5034069;28;20440;-71
2023/07/25 09:24:57;;;;;;;3.50;2.30;;;17.10;99.90;;;;;;5034920;28;20767;-71
2023/07/25 09:27:26;;;;;;;4.03;2.60;;;17.20;99.90;;;;;;5036609;28;20421;-72
2023/07/25 09:29:55;;;;;;;3.97;2.60;;;17.20;99.90;;;;;;5038589;28;20982;-71
2023/07/25 09:32:25;;;;;;;5.27;2.57;;;17.30;99.90;;;;;;5039492;28;21024;-71
2023/07/25 09:34:56;;;;;;;4.60;3.00;;;17.30;99.90;;;;;;5039886;28;20397;-71
2023/07/25 09:37:24;;;;;;;4.23;3.23;;;17.40;99.90;;;;;;5039680;28;20416;-71
2023/07/25 09:39:54;;;;;;;5.20;2.80;;;17.40;99.90;;;;;;5055378;28;20498;-71
2023/07/25 09:42:24;;;;;;;5.00;3.17;;;17.40;99.90;;;;;;5042672;28;20437;-71
2023/07/25 09:44:54;;;;;;;5.67;3.17;;;17.50;99.90;;;;;;5039543;28;20468;-72
2023/07/25 09:47:23;;;;;;;6.60;2.63;;;17.60;99.90;;;;;;5037885;28;20858;-72
2023/07/25 09:49:53;;;;;;;4.93;3.30;;;17.60;99.90;;;;;;5037892;28;20513;-72
2023/07/25 09:52:21;;;;;;;9.03;3.33;;;17.70;99.90;;;;;;5037978;28;20516;-72
2023/07/25 09:54:50;;;;;;;4.50;2.90;;;17.70;99.90;;;;;;5040069;28;20784;-71
2023/07/25 09:57:19;;;;;;;6.73;3.07;;;17.80;99.90;;;;;;5037989;28;20508;-72
2023/07/25 09:59:49;;;;;;;4.83;2.77;;;17.80;99.90;;;;;;5038528;28;20449;-72
2023/07/25 10:02:18;;;;;;;5.10;3.10;;;17.90;99.90;;;;;;5037929;28;21023;-72
2023/07/25 10:04:47;;;;;;;4.00;3.00;;;17.90;99.90;;;;;;5039054;28;20542;-71
2023/07/25 10:07:15;;;;;;;7.80;2.97;;;18.00;99.90;;;;;;5037078;28;20425;-72
2023/07/25 10:09:46;;;;;;;4.20;2.50;;;18.10;99.90;;;;;;5038851;28;20445;-72
2023/07/25 10:12:14;;;;;;;4.47;2.80;;;18.20;99.90;;;;;;5039791;28;20451;-72
2023/07/25 10:14:42;;;;;;;4.87;2.60;;;18.30;99.90;;;;;;5041257;28;20471;-72
2023/07/25 10:17:12;;;;;;;4.37;2.70;;;18.40;99.90;;;;;;5041222;28;20456;-72
2023/07/25 10:19:51;;;;;;;4.50;2.80;;;18.50;99.90;;;;;;5039501;28;20444;-72
2023/07/25 10:22:36;;;;;;;6.70;2.90;;;18.60;99.90;;;;;;5040433;28;20960;-72
2023/07/25 10:25:09;;;;;;;4.90;2.40;;;18.70;99.90;;;;;;5039804;28;20419;-72
2023/07/25 10:27:38;;;;;;;6.77;2.83;;;18.70;99.90;;;;;;5037683;28;20859;-72
2023/07/25 10:30:22;;;;;;;8.10;2.67;;;18.70;99.90;;;;;;5038400;28;20454;-72
2023/07/25 10:32:54;;;;;;;5.27;2.50;;;18.70;99.90;;;;;;5037798;28;20435;-72
2023/07/25 10:35:49;;;;;;;6.77;2.40;;;18.70;99.90;;;;;;5038073;28;20458;-72
2023/07/25 10:38:32;;;;;;;5.37;2.50;;;18.70;99.90;;;;;;5038416;28;20433;-72
2023/07/25 10:41:02;;;;;;;4.20;2.10;;;18.60;99.90;;;;;;5037854;28;20457;-72
2023/07/25 10:43:52;;;;;;;7.50;2.60;;;18.60;99.90;;;;;;5037888;28;20470;-72
2023/07/25 10:46:22;;;;;;;10.07;2.17;;;18.60;99.90;;;;;;5038189;28;20394;-72
2023/07/25 10:48:53;;;;;;;6.80;2.47;;;18.60;99.90;;;;;;5036962;28;20443;-72
2023/07/25 10:51:23;;;;;;;5.00;2.37;;;18.60;99.90;;;;;;5037125;28;20455;-72
2023/07/25 10:54:08;;;;;;;3.70;2.33;;;18.50;99.90;;;;;;5035291;28;21006;-72
2023/07/25 10:56:37;;;;;;;3.70;2.10;;;18.50;99.90;;;;;;5035875;28;20481;-72
2023/07/25 10:59:09;;;;;;;4.67;2.50;;;18.50;99.90;;;;;;5035379;28;20940;-72
2023/07/25 11:01:47;;;;;;;4.60;2.30;;;18.60;99.90;;;;;;5033951;28;20984;-72
2023/07/25 11:04:27;;;;;;;6.00;3.33;;;18.60;99.90;;;;;;5035577;28;20476;-72
2023/07/25 11:06:57;;;;;;;7.23;2.50;;;18.70;99.90;;;;;;5035593;28;20458;-72
2023/07/25 11:09:26;;;;;;;4.70;2.57;;;18.70;99.90;;;;;;5035744;28;20446;-72
2023/07/25 11:11:55;;;;;;;3.93;2.20;;;18.80;99.90;;;;;;5035470;28;20467;-72
2023/07/25 11:14:23;;;;;;;4.73;2.83;;;18.90;99.90;;;;;;5035369;28;20431;-72
2023/07/25 11:16:53;;;;;;;5.20;3.20;;;18.90;99.90;;;;;;5034970;28;20457;-72
2023/07/25 11:19:29;;;;;;;4.30;2.57;;;18.90;99.90;;;;;;5035773;28;20446;-72
2023/07/25 11:21:57;;;;;;;4.63;2.20;;;18.90;99.90;;;;;;5037000;28;20557;-72
2023/07/25 11:24:25;;;;;;;3.07;2.20;;;18.90;99.90;;;;;;5034878;28;20478;-71
2023/07/25 11:26:53;;;;;;;4.83;2.57;;;18.90;99.90;;;;;;5035684;28;20559;-72
2023/07/25 11:29:22;;;;;;;5.10;2.30;;;19.00;99.90;;;;;;5034670;28;20481;-72
2023/07/25 11:31:51;;;;;;;6.00;2.43;;;19.10;99.90;;;;;;5035724;28;20454;-72
2023/07/25 11:34:20;;;;;;;4.87;2.60;;;19.20;99.90;;;;;;5035055;28;20827;-72
2023/07/25 11:36:49;;;;;;;4.20;2.23;;;19.20;99.90;;;;;;5034521;28;20848;-72
2023/07/25 11:39:19;;;;;;;4.90;3.27;;;19.30;99.90;;;;;;5034495;28;20855;-72
2023/07/25 11:41:47;;;;;;;4.50;2.40;;;19.40;99.90;;;;;;5034340;28;20650;-72
2023/07/25 11:44:17;;;;;;;3.63;2.23;;;19.50;99.90;;;;;;5034323;28;20445;-72
2023/07/25 11:46:48;;;;;;;2.90;2.27;;;19.60;99.90;;;;;;5034529;28;20431;-72
2023/07/25 11:49:17;;;;;;;4.40;2.53;;;19.60;99.90;;;;;;5033052;28;20500;-72
2023/07/25 11:52:09;;;;;;;4.03;2.10;;;19.50;99.90;;;;;;5032846;28;20554;-72
2023/07/25 11:54:37;;;;;;;4.60;2.40;;;19.50;99.90;;;;;;5034497;28;20411;-72
2023/07/25 11:57:09;;;;;;;4.70;2.13;;;19.50;99.90;;;;;;5033281;28;20791;-73
2023/07/25 11:59:40;;;;;;;5.43;2.40;;;19.40;99.90;;;;;;5034428;28;20423;-72
2023/07/25 12:02:10;;;;;;;3.20;1.87;;;19.40;99.90;;;;;;5033832;28;20884;-72
2023/07/25 12:04:43;;;;;;;5.67;2.20;;;19.40;99.90;;;;;;5033756;28;20431;-72
2023/07/25 12:07:13;;;;;;;4.50;2.00;;;19.40;99.90;;;;;;5034255;28;20395;-72
2023/07/25 12:09:49;;;;;;;2.40;1.50;;;19.40;99.90;;;;;;5032463;28;20447;-73
2023/07/25 12:12:17;;;;;;;5.17;2.40;;;19.40;99.90;;;;;;5032501;28;20463;-72
2023/07/25 12:14:54;;;;;;;2.87;1.90;;;19.40;99.90;;;;;;5033766;28;20522;-72
2023/07/25 12:17:22;;;;;;;5.10;1.90;;;19.40;99.90;;;;;;5033757;28;20420;-73
2023/07/25 12:19:54;;;;;;;4.87;2.17;;;19.40;99.90;;;;;;5033714;28;20434;-72
2023/07/25 12:22:24;;;;;;;3.87;1.90;;;19.40;99.90;;;;;;5032292;28;20858;-72
2023/07/25 12:24:52;;;;;;;3.70;1.63;;;19.40;99.90;;;;;;5032289;28;20537;-72
2023/07/25 12:27:20;;;;;;;3.03;1.50;;;19.40;99.90;;;;;;5033596;28;20450;-72
2023/07/25 12:29:48;;;;;;;6.30;2.53;;;19.50;99.90;;;;;;5033587;28;20445;-72
2023/07/25 12:32:16;;;;;;;3.10;1.53;;;19.50;99.90;;;;;;5032197;28;20538;-73
2023/07/25 12:34:45;;;;;;;4.90;1.60;;;19.50;99.90;;;;;;5032375;28;20451;-73
2023/07/25 12:37:13;;;;;;;4.90;1.80;;;19.50;99.90;;;;;;5032171;28;20940;-73
2023/07/25 12:39:44;;;;;;;3.90;1.67;;;19.50;99.90;;;;;;5032240;28;20457;-73
2023/07/25 12:42:13;;;;;;;5.23;1.50;;;19.60;99.90;;;;;;5033505;28;20470;-72
2023/07/25 12:44:41;;;;;;;3.37;1.43;;;19.70;99.90;;;;;;5033573;28;20473;-72
2023/07/25 12:47:09;;;;;;;3.40;1.47;;;19.70;99.90;;;;;;5033479;28;20442;-72
2023/07/25 12:49:37;;;;;;;3.13;1.27;;;19.80;99.90;;;;;;5032100;28;20447;-72
2023/07/25 12:52:06;;;;;;;2.60;1.40;;;19.80;99.90;;;;;;5033207;28;20463;-72
2023/07/25 12:54:35;;;;;;;2.80;1.17;;;19.80;99.90;;;;;;5033812;28;20449;-72
2023/07/25 12:57:05;;;;;;;3.60;1.40;;;19.80;99.90;;;;;;5031964;28;20505;-72